Time;durP1;ratioP1;P1;durP2;ratioP2;P2;SDS_P1;SDS_P2;PMS_P1;PMS_P2;Temp;Humidity;BMP_temperature;BMP_pressure;BME280_temperature;BME280_humidity;BME280_pressure;Samples;Min_cycle;Max_cycle;Signal;HPM_P1;HPM_P2
2022/09/26 00:02:10;;;;;;;10.23;7.63;;;13.70;1.00;;;;;;5047623;28;20484;-81
2022/09/26 00:04:50;;;;;;;10.00;7.90;;;13.60;1.00;;;;;;5049454;28;20448;-82
2022/09/26 00:07:19;;;;;;;8.90;7.07;;;13.60;1.00;;;;;;5031699;28;20496;-79
2022/09/26 00:09:54;;;;;;;8.10;5.90;;;13.60;1.00;;;;;;5048887;28;20504;-80
2022/09/26 00:12:21;;;;;;;7.90;5.43;;;13.50;1.00;;;;;;5047430;28;20436;-79
2022/09/26 00:14:51;;;;;;;8.17;6.03;;;13.50;1.00;;;;;;5034568;28;20424;-78
2022/09/26 00:17:19;;;;;;;9.07;5.70;;;13.50;1.00;;;;;;5053881;28;20504;-79
2022/09/26 00:19:49;;;;;;;7.63;5.00;;;13.50;1.00;;;;;;5047944;28;20435;-79
2022/09/26 00:22:19;;;;;;;9.43;3.80;;;13.60;1.00;;;;;;5049549;28;20456;-80
2022/09/26 00:24:46;;;;;;;8.10;4.27;;;13.60;1.00;;;;;;5036132;28;21006;-80
2022/09/26 00:27:14;;;;;;;5.97;3.83;;;13.60;1.00;;;;;;5030211;28;20444;-81
2022/09/26 00:29:41;;;;;;;6.67;3.70;;;13.50;1.00;;;;;;5047459;28;20818;-81
2022/09/26 00:32:12;;;;;;;7.50;4.00;;;13.50;1.00;;;;;;5034698;28;20448;-77
2022/09/26 00:34:39;;;;;;;8.00;3.53;;;13.50;1.00;;;;;;5043181;28;20456;-78
2022/09/26 00:37:06;;;;;;;7.40;3.67;;;13.40;1.00;;;;;;5044060;28;20475;-77
2022/09/26 00:39:33;;;;;;;6.33;3.50;;;13.40;1.00;;;;;;5049524;28;20412;-77
2022/09/26 00:42:01;;;;;;;6.47;3.77;;;13.40;1.00;;;;;;5043943;28;20491;-77
2022/09/26 00:44:40;;;;;;;7.03;3.30;;;13.30;1.00;;;;;;5031542;28;20457;-78
2022/09/26 00:47:20;;;;;;;6.30;3.40;;;13.20;1.00;;;;;;5042947;28;21110;-76
2022/09/26 00:49:50;;;;;;;7.00;3.27;;;13.20;1.00;;;;;;5046310;28;20456;-77
2022/09/26 00:52:24;;;;;;;5.70;3.40;;;13.10;1.00;;;;;;5045095;28;20444;-80
2022/09/26 00:54:55;;;;;;;7.47;3.60;;;13.10;1.00;;;;;;5043821;28;20494;-79
2022/09/26 00:57:27;;;;;;;8.30;3.53;;;13.10;1.00;;;;;;5048487;28;20482;-77
2022/09/26 00:59:59;;;;;;;6.47;3.70;;;13.10;1.00;;;;;;5044627;28;21339;-77
2022/09/26 01:02:29;;;;;;;9.00;4.67;;;13.20;1.00;;;;;;5045829;28;20443;-79
2022/09/26 01:04:58;;;;;;;9.90;4.50;;;13.20;1.00;;;;;;5038109;28;20440;-78
2022/09/26 01:07:27;;;;;;;9.90;4.13;;;13.20;1.00;;;;;;5039135;28;20939;-78
2022/09/26 01:09:55;;;;;;;10.23;4.97;;;13.30;1.00;;;;;;5031068;28;20456;-78
2022/09/26 01:12:22;;;;;;;8.40;4.60;;;13.30;1.00;;;;;;5044957;28;20909;-81
2022/09/26 01:14:52;;;;;;;7.90;4.60;;;13.30;1.00;;;;;;5044144;28;20471;-78
2022/09/26 01:17:20;;;;;;;10.57;5.17;;;13.30;1.00;;;;;;5045369;28;20526;-79
2022/09/26 01:20:00;;;;;;;14.97;5.03;;;13.30;1.00;;;;;;5043861;28;20467;-80
2022/09/26 01:23:01;;;;;;;8.60;3.97;;;13.30;1.00;;;;;;5043933;28;20472;-78
2022/09/26 01:25:52;;;;;;;8.70;4.80;;;13.30;1.00;;;;;;5024410;28;20455;-77
2022/09/26 01:28:48;;;;;;;8.27;4.20;;;13.30;1.00;;;;;;5041448;28;20431;-78
2022/09/26 01:31:23;;;;;;;8.83;3.93;;;13.20;1.00;;;;;;5033602;28;20780;-77
2022/09/26 01:34:02;;;;;;;8.07;4.17;;;13.30;1.00;;;;;;5044355;28;20478;-77
2022/09/26 01:36:45;;;;;;;8.07;4.37;;;13.20;1.00;;;;;;5043008;28;20452;-78
2022/09/26 01:39:35;;;;;;;7.77;3.80;;;13.20;1.00;;;;;;5014803;28;20546;-77
2022/09/26 01:42:11;;;;;;;8.03;4.00;;;13.30;1.00;;;;;;5044394;28;20448;-78
2022/09/26 01:44:47;;;;;;;9.10;4.47;;;13.30;1.00;;;;;;5040862;28;20464;-77
2022/09/26 01:47:20;;;;;;;9.47;4.77;;;13.30;1.00;;;;;;5044636;28;20440;-76
2022/09/26 01:49:54;;;;;;;8.67;4.23;;;13.30;1.00;;;;;;5041012;28;20465;-77
2022/09/26 01:52:29;;;;;;;8.50;4.40;;;13.30;1.00;;;;;;5044170;28;20530;-77
2022/09/26 01:55:03;;;;;;;6.80;4.40;;;13.20;1.00;;;;;;5038354;28;20446;-77
2022/09/26 01:57:35;;;;;;;7.60;4.30;;;13.20;1.00;;;;;;5041136;28;21204;-80
2022/09/26 02:00:06;;;;;;;10.07;3.90;;;13.10;1.00;;;;;;5041762;28;20443;-78
2022/09/26 02:02:40;;;;;;;7.90;3.53;;;13.10;1.00;;;;;;5041679;28;20456;-78
2022/09/26 02:05:12;;;;;;;7.00;4.00;;;13.10;1.00;;;;;;5042799;28;20452;-77
2022/09/26 02:07:44;;;;;;;7.07;3.63;;;13.10;1.00;;;;;;5043167;28;20555;-77
2022/09/26 02:10:20;;;;;;;6.37;3.50;;;13.20;1.00;;;;;;5038492;28;20572;-77
2022/09/26 02:12:53;;;;;;;7.93;4.30;;;13.30;1.00;;;;;;5040126;28;20460;-78
2022/09/26 02:15:23;;;;;;;6.50;3.83;;;13.30;1.00;;;;;;5043204;28;20434;-79
2022/09/26 02:17:56;;;;;;;7.43;4.07;;;13.30;1.00;;;;;;5040567;28;20445;-79
2022/09/26 02:20:30;;;;;;;9.80;4.27;;;13.30;1.00;;;;;;5040896;28;20904;-77
2022/09/26 02:22:58;;;;;;;9.77;3.93;;;13.30;1.00;;;;;;5041310;28;20552;-78
2022/09/26 02:25:27;;;;;;;8.73;3.50;;;13.30;1.00;;;;;;5041055;28;20468;-79
2022/09/26 02:27:54;;;;;;;7.60;3.80;;;13.30;1.00;;;;;;5044292;28;20482;-79
2022/09/26 02:30:21;;;;;;;7.03;3.70;;;13.30;1.00;;;;;;5045095;28;20495;-77
2022/09/26 02:32:48;;;;;;;5.63;3.07;;;13.30;1.00;;;;;;5040987;28;21056;-78
2022/09/26 02:38:03;;;;;;;9.00;4.07;;;13.40;1.00;;;;;;5041525;28;21205;-78
2022/09/26 02:40:36;;;;;;;6.13;3.40;;;13.30;1.00;;;;;;5042447;28;20591;-78
2022/09/26 02:43:20;;;;;;;7.30;3.60;;;13.30;1.00;;;;;;5042277;28;20468;-77
2022/09/26 02:45:52;;;;;;;7.60;3.47;;;13.30;1.00;;;;;;5041889;28;20468;-78
2022/09/26 02:48:36;;;;;;;10.57;4.57;;;13.30;1.00;;;;;;5042477;28;20457;-78
2022/09/26 02:51:15;;;;;;;8.07;4.30;;;13.30;1.00;;;;;;5042408;28;21280;-77
2022/09/26 02:54:00;;;;;;;8.80;4.30;;;13.30;1.00;;;;;;5043726;28;20469;-77
2022/09/26 02:56:35;;;;;;;7.73;3.90;;;13.30;1.00;;;;;;5041110;28;20472;-77
2022/09/26 02:59:09;;;;;;;9.50;5.03;;;13.30;1.00;;;;;;5045088;28;20460;-77
2022/09/26 03:01:43;;;;;;;7.00;3.83;;;13.30;1.00;;;;;;5044312;28;21330;-78
2022/09/26 03:04:17;;;;;;;9.33;3.47;;;13.30;1.00;;;;;;5042393;28;20464;-79
2022/09/26 03:06:51;;;;;;;9.40;3.73;;;13.30;1.00;;;;;;5040308;28;20488;-78
2022/09/26 03:09:20;;;;;;;9.23;5.10;;;13.30;1.00;;;;;;5044157;28;20437;-78
2022/09/26 03:11:48;;;;;;;7.20;3.60;;;13.30;1.00;;;;;;5040327;28;20473;-77
2022/09/26 03:14:18;;;;;;;7.63;4.23;;;13.40;1.00;;;;;;5043403;28;20452;-78
2022/09/26 03:16:45;;;;;;;8.57;4.80;;;13.40;1.00;;;;;;5042389;28;20891;-77
2022/09/26 03:19:22;;;;;;;12.00;5.60;;;13.40;1.00;;;;;;5041928;28;20507;-78
2022/09/26 03:21:50;;;;;;;9.73;6.60;;;13.40;1.00;;;;;;5038598;28;22273;-76
2022/09/26 03:24:18;;;;;;;7.70;5.67;;;13.40;1.00;;;;;;5041075;28;21272;-76
2022/09/26 03:26:46;;;;;;;9.67;6.60;;;13.40;1.00;;;;;;5039642;28;20464;-77
2022/09/26 03:29:12;;;;;;;7.17;4.30;;;13.30;1.00;;;;;;5044133;28;20478;-77
2022/09/26 03:31:39;;;;;;;11.30;5.30;;;13.30;1.00;;;;;;5040881;28;20464;-77
2022/09/26 03:34:06;;;;;;;9.33;4.70;;;13.30;1.00;;;;;;5044780;28;20450;-76
2022/09/26 03:36:33;;;;;;;7.50;4.20;;;13.30;1.00;;;;;;5039082;28;21432;-78
2022/09/26 03:39:03;;;;;;;9.60;4.97;;;13.30;1.00;;;;;;5040929;28;20535;-77
2022/09/26 03:41:30;;;;;;;8.17;4.47;;;13.20;1.00;;;;;;5041154;28;20457;-77
2022/09/26 03:43:57;;;;;;;9.63;4.47;;;13.20;1.00;;;;;;5037208;28;20468;-78
2022/09/26 03:46:24;;;;;;;7.90;3.97;;;13.20;1.00;;;;;;5041512;28;20464;-77
2022/09/26 03:48:51;;;;;;;12.30;4.00;;;13.10;1.00;;;;;;5042645;28;20542;-79
2022/09/26 03:51:19;;;;;;;9.33;4.60;;;13.10;1.00;;;;;;5045907;28;20471;-77
2022/09/26 03:53:47;;;;;;;13.97;8.50;;;13.20;1.00;;;;;;5047030;28;20567;-79
2022/09/26 03:56:16;;;;;;;11.87;7.37;;;13.20;1.00;;;;;;5042488;28;20472;-78
2022/09/26 03:58:46;;;;;;;8.80;5.70;;;13.30;1.00;;;;;;5043450;28;20473;-77
2022/09/26 04:01:15;;;;;;;7.37;4.60;;;13.20;1.00;;;;;;5034081;28;20968;-77
2022/09/26 04:03:44;;;;;;;9.43;4.70;;;13.10;1.00;;;;;;5040682;28;20460;-78
2022/09/26 04:06:12;;;;;;;10.20;4.87;;;13.10;1.00;;;;;;5041514;28;20492;-78
2022/09/26 04:08:42;;;;;;;12.20;5.37;;;13.10;1.00;;;;;;5040323;28;20448;-78
2022/09/26 04:11:11;;;;;;;10.57;5.30;;;13.10;1.00;;;;;;5044284;28;20463;-78
2022/09/26 04:13:40;;;;;;;11.40;4.87;;;13.00;1.00;;;;;;5047701;28;20500;-78
2022/09/26 04:16:09;;;;;;;37.70;25.93;;;13.00;1.00;;;;;;5041170;28;20459;-78
2022/09/26 04:18:39;;;;;;;10.63;6.60;;;13.00;1.00;;;;;;5044999;28;22333;-77
2022/09/26 04:21:08;;;;;;;8.43;4.23;;;13.00;1.00;;;;;;5043223;28;21003;-77
2022/09/26 04:23:36;;;;;;;8.90;4.97;;;13.00;1.00;;;;;;5032980;28;21335;-79
2022/09/26 04:26:04;;;;;;;7.60;3.60;;;13.00;1.00;;;;;;5045094;28;20471;-77
2022/09/26 04:28:32;;;;;;;8.70;4.47;;;12.90;1.00;;;;;;5045954;28;20465;-80
2022/09/26 04:31:01;;;;;;;9.33;5.27;;;12.90;1.00;;;;;;5042663;28;20464;-78
2022/09/26 04:33:31;;;;;;;9.30;5.80;;;12.90;1.00;;;;;;5044993;28;20426;-78
2022/09/26 04:36:00;;;;;;;10.10;5.07;;;12.90;1.00;;;;;;5045128;28;21452;-79
2022/09/26 04:38:32;;;;;;;7.67;4.47;;;12.80;1.00;;;;;;5046829;28;20534;-79
2022/09/26 04:41:03;;;;;;;8.03;4.03;;;12.80;1.00;;;;;;5046703;28;20460;-78
2022/09/26 04:43:30;;;;;;;7.13;4.27;;;12.60;1.00;;;;;;5044857;28;20466;-76
2022/09/26 04:46:00;;;;;;;9.90;6.17;;;12.60;1.00;;;;;;5041865;28;20558;-78
2022/09/26 04:48:28;;;;;;;7.53;4.03;;;12.50;1.00;;;;;;5046656;28;20500;-76
2022/09/26 04:50:55;;;;;;;7.90;4.23;;;12.40;1.00;;;;;;5042619;28;20457;-78
2022/09/26 04:53:22;;;;;;;9.30;5.33;;;12.30;1.00;;;;;;5045646;28;20480;-78
2022/09/26 04:55:53;;;;;;;10.70;5.60;;;12.40;1.00;;;;;;5045848;28;20483;-78
2022/09/26 04:58:21;;;;;;;8.13;4.60;;;12.40;1.00;;;;;;5044735;28;20476;-78
2022/09/26 05:00:48;;;;;;;7.40;4.90;;;12.40;1.00;;;;;;5045879;28;20459;-77
2022/09/26 05:03:16;;;;;;;11.80;5.40;;;12.40;1.00;;;;;;5044660;28;20488;-77
2022/09/26 05:05:46;;;;;;;11.73;5.60;;;12.40;1.00;;;;;;5045066;28;20576;-78
2022/09/26 05:08:14;;;;;;;8.53;5.47;;;12.40;1.00;;;;;;5042236;28;20511;-78
2022/09/26 05:10:41;;;;;;;8.13;5.30;;;12.40;1.00;;;;;;5042682;28;20471;-77
2022/09/26 05:13:08;;;;;;;11.57;6.20;;;12.40;1.00;;;;;;5045635;28;20535;-76
2022/09/26 05:15:38;;;;;;;11.60;6.60;;;12.40;1.00;;;;;;5044657;28;20485;-76
2022/09/26 05:18:08;;;;;;;10.37;5.93;;;12.40;1.00;;;;;;5042737;28;20453;-75
2022/09/26 05:20:36;;;;;;;8.90;5.70;;;12.20;1.00;;;;;;5042690;28;20467;-77
2022/09/26 05:23:09;;;;;;;9.60;6.97;;;12.20;1.00;;;;;;5042747;28;21269;-78
2022/09/26 05:28:23;;;;;;;10.20;6.77;;;12.00;1.00;;;;;;5041863;28;20464;-75
2022/09/26 05:30:51;;;;;;;10.63;5.53;;;12.00;1.00;;;;;;5047006;28;20467;-78
2022/09/26 05:33:19;;;;;;;9.60;6.57;;;12.00;1.00;;;;;;5045496;28;20475;-77
2022/09/26 05:35:52;;;;;;;10.10;6.40;;;12.00;1.00;;;;;;5047044;28;21034;-77
2022/09/26 05:38:21;;;;;;;15.80;6.73;;;12.00;1.00;;;;;;5046271;28;21028;-77
2022/09/26 05:40:56;;;;;;;16.73;8.87;;;12.00;1.00;;;;;;5040301;28;20465;-78
2022/09/26 05:43:24;;;;;;;12.03;6.80;;;12.00;1.00;;;;;;5036183;28;20459;-77
2022/09/26 05:45:51;;;;;;;17.50;7.20;;;12.10;1.00;;;;;;5044591;28;20476;-78
2022/09/26 05:48:17;;;;;;;9.90;5.90;;;12.10;1.00;;;;;;5047732;28;20437;-77
2022/09/26 05:50:44;;;;;;;9.90;6.57;;;12.10;1.00;;;;;;5045509;28;20531;-79
2022/09/26 05:53:13;;;;;;;11.20;6.37;;;12.10;1.00;;;;;;5021568;28;20465;-79
2022/09/26 05:55:42;;;;;;;13.23;6.03;;;12.10;1.00;;;;;;5044238;28;20449;-75
2022/09/26 05:58:09;;;;;;;9.57;6.27;;;12.20;1.00;;;;;;5044519;28;20426;-76
2022/09/26 06:00:37;;;;;;;8.27;5.77;;;12.20;1.00;;;;;;5052268;28;20965;-80
2022/09/26 06:03:09;;;;;;;11.50;6.30;;;12.20;1.00;;;;;;5050417;28;21040;-78
2022/09/26 06:05:37;;;;;;;9.00;5.27;;;12.10;1.00;;;;;;5046674;28;20511;-81
2022/09/26 06:08:05;;;;;;;9.07;6.10;;;12.10;1.00;;;;;;5045055;28;20463;-78
2022/09/26 06:10:32;;;;;;;11.77;6.63;;;12.20;1.00;;;;;;5043312;28;20471;-76
2022/09/26 06:13:02;;;;;;;10.60;6.00;;;12.20;1.00;;;;;;5044931;28;20484;-77
2022/09/26 06:15:33;;;;;;;10.70;7.20;;;12.20;1.00;;;;;;5049200;28;20491;-77
2022/09/26 06:18:03;;;;;;;9.13;6.53;;;12.20;1.00;;;;;;5048979;28;20468;-80
2022/09/26 06:20:32;;;;;;;9.70;6.30;;;12.30;1.00;;;;;;5049248;28;20865;-81
2022/09/26 06:23:00;;;;;;;8.57;5.90;;;12.30;1.00;;;;;;5048042;28;20461;-81
2022/09/26 06:25:28;;;;;;;11.00;7.00;;;12.30;1.00;;;;;;5051048;28;20428;-78
2022/09/26 06:27:56;;;;;;;11.00;6.93;;;12.40;1.00;;;;;;5046587;28;20633;-81
2022/09/26 06:30:25;;;;;;;9.30;6.00;;;12.40;1.00;;;;;;5050114;28;20472;-79
2022/09/26 06:32:54;;;;;;;10.37;6.23;;;12.40;1.00;;;;;;5050443;28;20422;-78
2022/09/26 06:35:23;;;;;;;8.60;5.63;;;12.50;1.00;;;;;;5047531;28;20440;-80
2022/09/26 06:37:50;;;;;;;9.43;6.43;;;12.40;1.00;;;;;;5052198;28;20476;-79
2022/09/26 06:40:17;;;;;;;12.53;6.53;;;12.40;1.00;;;;;;5051984;28;20464;-80
2022/09/26 06:42:45;;;;;;;11.90;6.97;;;12.50;1.00;;;;;;5047375;28;21222;-81
2022/09/26 06:45:12;;;;;;;12.50;9.73;;;12.50;1.00;;;;;;5043982;28;20473;-78
2022/09/26 06:47:41;;;;;;;9.93;6.23;;;12.50;1.00;;;;;;5046169;28;20453;-82
2022/09/26 06:50:11;;;;;;;12.50;7.30;;;12.60;1.00;;;;;;5048823;28;20449;-80
2022/09/26 06:52:38;;;;;;;11.43;7.73;;;12.70;1.00;;;;;;5047517;28;20419;-82
2022/09/26 06:55:07;;;;;;;12.00;6.80;;;12.80;1.00;;;;;;5047694;28;20684;-82
2022/09/26 06:57:39;;;;;;;10.53;6.60;;;12.90;1.00;;;;;;5043846;28;20507;-82
2022/09/26 07:00:09;;;;;;;8.97;5.90;;;13.00;1.00;;;;;;5042218;28;20468;-81
2022/09/26 07:02:36;;;;;;;9.30;5.73;;;13.10;1.00;;;;;;5045457;28;20467;-81
2022/09/26 07:05:05;;;;;;;9.70;6.20;;;13.20;1.00;;;;;;5041304;28;21165;-81
2022/09/26 07:07:40;;;;;;;11.53;6.50;;;13.30;1.00;;;;;;5043962;28;20463;-81
2022/09/26 07:10:09;;;;;;;10.30;5.60;;;13.50;1.00;;;;;;5043141;28;20892;-82
2022/09/26 07:12:39;;;;;;;9.10;6.03;;;13.60;1.00;;;;;;5041977;28;20459;-83
2022/09/26 07:15:08;;;;;;;10.70;5.60;;;13.80;1.00;;;;;;5042101;28;20619;-84
2022/09/26 07:17:36;;;;;;;12.80;6.57;;;13.80;1.00;;;;;;5046481;28;20449;-81
2022/09/26 07:20:06;;;;;;;7.30;5.17;;;13.80;1.00;;;;;;5043594;28;20461;-81
2022/09/26 07:22:33;;;;;;;8.60;4.90;;;13.90;1.00;;;;;;5029100;28;20464;-82
2022/09/26 07:25:00;;;;;;;8.17;4.63;;;13.90;1.00;;;;;;5047692;28;20577;-82
2022/09/26 07:27:27;;;;;;;9.20;5.80;;;13.80;1.00;;;;;;5048007;28;20456;-81
2022/09/26 07:29:55;;;;;;;12.53;5.77;;;13.90;1.00;;;;;;5047411;28;20457;-81
2022/09/26 07:32:22;;;;;;;7.83;5.57;;;14.00;1.00;;;;;;5043583;28;20489;-81
2022/09/26 07:34:52;;;;;;;9.53;6.30;;;14.00;1.00;;;;;;5044410;28;20488;-81
2022/09/26 07:37:20;;;;;;;9.43;6.30;;;14.00;1.00;;;;;;5045734;28;20456;-80
2022/09/26 07:39:47;;;;;;;9.10;5.40;;;14.10;1.00;;;;;;5031205;28;20471;-80
2022/09/26 07:42:16;;;;;;;8.47;5.43;;;14.20;1.00;;;;;;5045409;28;20428;-82
2022/09/26 07:44:43;;;;;;;10.70;6.37;;;14.30;1.00;;;;;;5045964;28;20472;-82
2022/09/26 07:50:13;;;;;;;13.60;5.90;;;14.60;1.00;;;;;;5047907;28;21007;-85
2022/09/26 07:52:43;;;;;;;11.20;5.63;;;14.70;1.00;;;;;;5051505;28;20457;-80
2022/09/26 07:55:15;;;;;;;7.93;5.30;;;14.80;1.00;;;;;;5043344;28;20444;-80
2022/09/26 07:57:42;;;;;;;8.20;5.23;;;14.90;1.00;;;;;;5045624;28;20522;-80
2022/09/26 08:00:12;;;;;;;9.70;5.50;;;15.00;1.00;;;;;;5042434;28;20528;-82
2022/09/26 08:02:41;;;;;;;8.90;4.67;;;15.10;1.00;;;;;;5043649;28;20424;-84
2022/09/26 08:05:10;;;;;;;7.20;4.60;;;15.20;1.00;;;;;;5042968;28;20478;-81
2022/09/26 08:07:39;;;;;;;8.13;4.67;;;15.20;1.00;;;;;;5286798;22;20436;-82
2022/09/26 08:10:20;;;;;;;10.50;4.77;;;15.30;1.00;;;;;;5022866;28;20422;-83
2022/09/26 08:12:53;;;;;;;7.47;4.87;;;15.30;1.00;;;;;;5026884;28;20488;-84
2022/09/26 08:15:20;;;;;;;7.20;3.40;;;15.40;1.00;;;;;;5027624;28;20487;-82
2022/09/26 08:17:47;;;;;;;7.97;4.63;;;15.50;1.00;;;;;;5033191;28;20448;-83
2022/09/26 08:20:13;;;;;;;6.80;4.63;;;15.70;1.00;;;;;;5022118;28;20432;-82
2022/09/26 08:22:40;;;;;;;8.37;4.70;;;15.90;1.00;;;;;;5026567;28;20954;-82
2022/09/26 08:25:12;;;;;;;7.37;4.07;;;16.10;1.00;;;;;;5003595;28;20516;-82
2022/09/26 08:27:42;;;;;;;10.17;4.00;;;16.20;1.00;;;;;;5021599;28;20473;-83
2022/09/26 08:30:10;;;;;;;6.63;4.13;;;16.30;1.00;;;;;;5024779;28;20553;-83
2022/09/26 08:32:37;;;;;;;9.27;3.70;;;16.30;1.00;;;;;;5021693;28;20976;-82
2022/09/26 08:35:06;;;;;;;7.33;4.13;;;16.30;1.00;;;;;;5026049;28;21178;-82
2022/09/26 08:37:33;;;;;;;7.80;4.00;;;16.40;1.00;;;;;;5029457;28;20479;-84
2022/09/26 08:39:59;;;;;;;7.03;3.80;;;16.60;1.00;;;;;;5034300;28;20583;-82
2022/09/26 08:42:41;;;;;;;6.27;3.87;;;16.80;1.00;;;;;;5030657;28;20453;-82
2022/09/26 08:48:30;;;;;;;11.80;4.30;;;16.80;1.00;;;;;;5028607;28;20418;-83
2022/09/26 08:51:03;;;;;;;5.07;3.27;;;16.90;1.00;;;;;;5030925;28;20452;-84
2022/09/26 08:53:38;;;;;;;6.67;3.43;;;16.90;1.00;;;;;;5033719;28;21169;-83
2022/09/26 08:56:17;;;;;;;7.03;3.90;;;16.90;1.00;;;;;;5025060;28;20555;-84
2022/09/26 08:58:51;;;;;;;7.50;4.30;;;17.00;1.00;;;;;;5030950;28;20453;-81
2022/09/26 09:01:25;;;;;;;9.23;4.60;;;17.00;1.00;;;;;;5031347;28;20565;-82
2022/09/26 09:03:55;;;;;;;6.17;3.40;;;17.00;1.00;;;;;;5029131;28;20472;-83
2022/09/26 09:06:27;;;;;;;7.83;2.83;;;16.80;1.00;;;;;;5023573;28;21083;-82
2022/09/26 09:08:56;;;;;;;4.50;2.40;;;17.60;1.00;;;;;;5028371;28;20514;-83
2022/09/26 09:11:38;;;;;;;3.73;2.30;;;19.60;1.00;;;;;;5028780;28;20432;-84
2022/09/26 09:14:21;;;;;;;3.63;2.67;;;21.60;1.00;;;;;;5023390;28;20470;-84
2022/09/26 09:17:02;;;;;;;5.50;2.53;;;23.10;1.00;;;;;;5023822;28;20623;-81
2022/09/26 09:19:36;;;;;;;3.10;2.47;;;24.50;1.00;;;;;;5033115;28;20446;-83
2022/09/26 09:22:35;;;;;;;3.00;2.00;;;25.30;1.00;;;;;;5021355;28;20471;-83
2022/09/26 09:25:05;;;;;;;5.93;2.93;;;26.00;1.00;;;;;;5027234;28;20496;-84
2022/09/26 09:27:57;;;;;;;4.63;2.50;;;26.30;1.00;;;;;;5025374;28;20476;-85
2022/09/26 09:30:33;;;;;;;5.20;2.17;;;26.50;1.00;;;;;;5009244;28;20464;-84
2022/09/26 09:33:05;;;;;;;3.50;1.90;;;26.90;1.00;;;;;;5006833;28;20612;-83
2022/09/26 09:35:41;;;;;;;2.70;1.70;;;26.20;1.00;;;;;;5029819;28;20531;-82
2022/09/26 09:38:14;;;;;;;2.30;1.37;;;25.10;1.00;;;;;;5031421;28;20490;-81
2022/09/26 09:40:46;;;;;;;3.83;1.40;;;24.40;1.00;;;;;;5031445;28;20957;-79
2022/09/26 09:43:18;;;;;;;3.57;1.77;;;24.80;1.00;;;;;;5029922;28;20636;-80
2022/09/26 09:45:49;;;;;;;4.37;1.83;;;26.00;1.00;;;;;;5027646;28;20465;-80
2022/09/26 09:48:16;;;;;;;4.90;2.57;;;27.00;1.00;;;;;;5032063;28;21254;-81
2022/09/26 09:50:55;;;;;;;2.17;1.50;;;27.90;1.00;;;;;;5029371;28;20429;-81
2022/09/26 09:54:01;;;;;;;5.80;5.20;;;28.70;1.00;;;;;;5035628;28;20425;-81
2022/09/26 09:56:44;;;;;;;2.17;1.27;;;29.40;1.00;;;;;;5027310;28;20477;-79
2022/09/26 09:59:41;;;;;;;3.83;1.97;;;28.90;1.00;;;;;;5031784;28;20647;-81
2022/09/26 10:02:20;;;;;;;3.67;2.07;;;28.60;1.00;;;;;;5029547;28;20619;-79
2022/09/26 10:04:56;;;;;;;4.40;1.50;;;28.50;1.00;;;;;;5031796;28;20571;-81
2022/09/26 10:07:25;;;;;;;2.23;1.57;;;27.40;1.00;;;;;;5029373;28;20549;-79
2022/09/26 10:09:52;;;;;;;2.23;1.07;;;27.00;1.00;;;;;;5032420;28;20988;-79
2022/09/26 10:12:28;;;;;;;2.73;1.53;;;26.70;1.00;;;;;;5032669;28;20454;-78
2022/09/26 10:14:59;;;;;;;1.70;1.40;;;27.20;1.00;;;;;;5027056;28;20464;-79
2022/09/26 10:17:28;;;;;;;3.87;1.20;;;27.30;1.00;;;;;;5024798;28;21265;-81
2022/09/26 10:19:55;;;;;;;3.10;1.10;;;27.40;1.00;;;;;;5023373;28;20560;-79
2022/09/26 10:22:31;;;;;;;2.73;1.30;;;27.60;1.00;;;;;;5028279;28;21344;-80
2022/09/26 10:25:08;;;;;;;1.80;1.20;;;28.00;1.00;;;;;;5032948;28;20506;-80
2022/09/26 10:27:38;;;;;;;4.07;1.47;;;28.30;1.00;;;;;;5030426;28;20486;-80
2022/09/26 10:30:24;;;;;;;2.20;0.87;;;27.80;1.00;;;;;;5030123;28;20470;-81
2022/09/26 10:32:58;;;;;;;1.63;1.23;;;26.10;1.00;;;;;;5026335;28;20428;-79
2022/09/26 10:35:28;;;;;;;1.23;0.90;;;25.50;1.00;;;;;;5026109;28;20472;-80
2022/09/26 10:38:02;;;;;;;2.27;1.30;;;26.80;1.00;;;;;;5029229;28;20490;-79
2022/09/26 10:40:45;;;;;;;2.47;2.27;;;27.00;1.00;;;;;;5028618;28;20463;-79
2022/09/26 10:43:30;;;;;;;3.40;1.90;;;25.60;1.00;;;;;;5027022;28;20518;-80
2022/09/26 10:46:08;;;;;;;8.53;2.50;;;25.00;1.00;;;;;;5025080;28;21030;-79
2022/09/26 10:48:45;;;;;;;6.40;2.27;;;24.20;1.00;;;;;;5030062;28;20584;-79
2022/09/26 10:51:20;;;;;;;8.70;2.60;;;23.00;1.00;;;;;;5029190;28;20482;-83
2022/09/26 10:53:50;;;;;;;2.00;0.90;;;22.00;1.00;;;;;;5026427;28;20466;-81
2022/09/26 10:56:25;;;;;;;2.40;1.60;;;21.40;1.00;;;;;;5027092;28;20454;-80
2022/09/26 10:58:56;;;;;;;3.73;1.37;;;21.10;1.00;;;;;;5029638;28;20460;-83
2022/09/26 11:01:28;;;;;;;3.07;1.70;;;20.90;1.00;;;;;;5027632;28;20469;-84
2022/09/26 11:04:14;;;;;;;3.43;1.50;;;20.80;1.00;;;;;;5032964;28;20544;-84
2022/09/26 11:06:44;;;;;;;3.53;1.40;;;20.60;1.00;;;;;;5030437;28;20472;-84
2022/09/26 11:09:12;;;;;;;5.30;1.83;;;20.00;1.00;;;;;;5028657;28;20425;-84
2022/09/26 11:11:41;;;;;;;2.90;1.77;;;19.90;1.00;;;;;;5033752;28;20501;-83
2022/09/26 11:14:09;;;;;;;10.70;1.90;;;19.60;1.00;;;;;;5034961;28;20445;-84
2022/09/26 11:16:58;;;;;;;2.90;1.47;;;19.40;1.00;;;;;;5029001;28;20925;-84
2022/09/26 11:19:45;;;;;;;3.60;1.57;;;19.20;1.00;;;;;;5034002;28;20449;-84
2022/09/26 11:22:21;;;;;;;5.90;1.60;;;18.90;1.00;;;;;;5034510;28;20504;-83
2022/09/26 11:25:05;;;;;;;3.80;1.90;;;18.60;1.00;;;;;;5031626;28;20449;-83
2022/09/26 11:27:42;;;;;;;5.17;1.83;;;18.80;1.00;;;;;;5029201;28;20475;-84
2022/09/26 11:30:18;;;;;;;2.50;1.90;;;19.50;1.00;;;;;;5031155;28;21151;-83
2022/09/26 11:32:48;;;;;;;2.90;1.87;;;19.60;1.00;;;;;;5017708;28;20469;-84
2022/09/26 11:35:28;;;;;;;5.40;2.30;;;19.50;1.00;;;;;;5031785;28;20470;-83
2022/09/26 11:38:09;;;;;;;3.70;1.43;;;19.40;1.00;;;;;;5032335;28;20587;-83
2022/09/26 11:41:06;;;;;;;2.00;1.33;;;19.10;1.00;;;;;;5026452;28;20571;-83
2022/09/26 11:43:46;;;;;;;2.50;1.20;;;18.90;1.00;;;;;;5015161;28;20463;-84
2022/09/26 11:46:30;;;;;;;3.50;1.60;;;18.90;1.00;;;;;;5025750;28;20457;-83
2022/09/26 11:49:26;;;;;;;2.93;1.37;;;18.80;1.00;;;;;;5028063;28;20441;-83
2022/09/26 11:52:13;;;;;;;2.47;1.30;;;18.90;1.00;;;;;;5025307;28;20564;-81
2022/09/26 11:55:00;;;;;;;2.40;1.40;;;18.90;1.00;;;;;;5030660;28;20420;-83
2022/09/26 11:57:41;;;;;;;2.47;1.57;;;18.90;1.00;;;;;;5034975;28;20435;-84
2022/09/26 12:00:23;;;;;;;3.60;1.30;;;18.70;1.00;;;;;;5029727;28;20438;-85
2022/09/26 12:03:18;;;;;;;3.60;1.80;;;19.30;1.00;;;;;;5033131;28;20468;-83
2022/09/26 12:05:53;;;;;;;2.00;1.53;;;19.50;1.00;;;;;;5023738;28;20469;-88
2022/09/26 12:08:43;;;;;;;6.57;2.20;;;19.30;1.00;;;;;;5032429;28;20449;-83
2022/09/26 12:11:21;;;;;;;3.70;1.70;;;19.10;1.00;;;;;;5034525;28;20461;-84
2022/09/26 12:13:53;;;;;;;5.37;1.67;;;18.80;1.00;;;;;;5038648;28;20484;-83
2022/09/26 12:16:28;;;;;;;3.70;1.80;;;18.50;1.00;;;;;;5026133;28;20484;-84
2022/09/26 12:19:03;;;;;;;5.87;1.90;;;18.30;1.00;;;;;;5040393;28;21014;-84
2022/09/26 12:22:27;;;;;;;3.40;1.67;;;18.30;1.00;;;;;;5042374;28;20484;-83
2022/09/26 12:24:45;;;;;;;3.20;1.90;;;18.40;1.00;;;;;;5037536;28;20514;-85
2022/09/26 12:27:20;;;;;;;3.17;1.57;;;19.10;1.00;;;;;;5038837;28;20468;-83
2022/09/26 12:29:53;;;;;;;2.60;1.70;;;22.30;1.00;;;;;;5038829;28;21234;-83
2022/09/26 12:32:45;;;;;;;3.27;1.23;;;24.00;1.00;;;;;;5034208;28;20967;-83
2022/09/26 12:35:44;;;;;;;2.70;1.57;;;25.30;1.00;;;;;;5039750;28;20453;-82
2022/09/26 12:38:33;;;;;;;4.63;1.60;;;27.50;1.00;;;;;;5037811;28;20464;-83
2022/09/26 12:41:22;;;;;;;2.90;1.50;;;28.50;1.00;;;;;;5033223;28;20539;-82
2022/09/26 12:44:21;;;;;;;8.20;1.90;;;26.90;1.00;;;;;;5038856;28;20456;-83
2022/09/26 12:47:37;;;;;;;3.20;1.60;;;24.70;1.00;;;;;;5025067;28;21047;-84
2022/09/26 12:50:16;;;;;;;3.63;1.63;;;22.60;1.00;;;;;;5006426;28;20476;-85
2022/09/26 12:53:04;;;;;;;2.63;1.17;;;21.20;1.00;;;;;;5037577;28;20445;-86
2022/09/26 12:55:40;;;;;;;3.50;1.70;;;20.50;1.00;;;;;;5040717;28;20532;-83
2022/09/26 12:58:22;;;;;;;6.17;2.20;;;20.50;1.00;;;;;;5013943;28;20524;-83
2022/09/26 13:01:01;;;;;;;3.57;1.83;;;20.30;1.00;;;;;;5042133;28;20956;-85
2022/09/26 13:03:55;;;;;;;4.60;1.50;;;19.90;1.00;;;;;;5009620;28;20558;-85
2022/09/26 13:07:02;;;;;;;3.13;1.60;;;19.60;1.00;;;;;;5044519;28;20461;-84
2022/09/26 13:09:52;;;;;;;4.60;1.53;;;19.60;1.00;;;;;;5037916;28;20440;-84
2022/09/26 13:12:39;;;;;;;3.77;1.80;;;19.50;1.00;;;;;;5033608;28;20514;-84
2022/09/26 13:15:20;;;;;;;5.33;1.47;;;19.40;1.00;;;;;;4995084;28;20422;-85
2022/09/26 13:17:58;;;;;;;2.50;1.47;;;19.20;1.00;;;;;;5019490;28;21333;-85
2022/09/26 13:20:50;;;;;;;4.60;1.70;;;18.80;1.00;;;;;;5020866;28;20591;-83
2022/09/26 13:23:26;;;;;;;4.77;1.70;;;18.50;1.00;;;;;;5044387;28;21241;-84
2022/09/26 13:25:57;;;;;;;3.33;1.47;;;18.30;1.00;;;;;;5040095;28;20441;-82
2022/09/26 13:28:37;;;;;;;4.40;1.97;;;18.10;1.00;;;;;;5022214;28;20644;-82
2022/09/26 13:31:16;;;;;;;4.40;1.93;;;18.00;1.00;;;;;;5036344;28;20461;-81
2022/09/26 13:33:48;;;;;;;2.63;1.77;;;18.00;1.00;;;;;;5039925;28;20847;-81
2022/09/26 13:36:21;;;;;;;7.43;2.07;;;18.00;1.00;;;;;;5023120;28;20988;-81
2022/09/26 13:38:56;;;;;;;5.43;1.73;;;18.00;1.00;;;;;;5035845;28;20437;-80
2022/09/26 13:41:39;;;;;;;2.07;1.20;;;17.80;1.00;;;;;;5043151;28;20556;-80